sensor_id;sensor_type;location;lat;lon;timestamp;P1;durP1;ratioP1;P2;durP2;ratioP2
66175;SDS011;52977;44.816;20.538;2022-10-31T00:02:05;70.72;;;29.35;;
66175;SDS011;52977;44.816;20.538;2022-10-31T00:05:06;79.22;;;29.98;;
66175;SDS011;52977;44.816;20.538;2022-10-31T00:11:09;86.25;;;30.35;;
66175;SDS011;52977;44.816;20.538;2022-10-31T00:14:11;65.35;;;27.00;;
66175;SDS011;52977;44.816;20.538;2022-10-31T00:20:13;75.95;;;28.88;;
66175;SDS011;52977;44.816;20.538;2022-10-31T00:23:14;58.17;;;26.92;;
66175;SDS011;52977;44.816;20.538;2022-10-31T00:26:16;56.78;;;25.50;;
66175;SDS011;52977;44.816;20.538;2022-10-31T00:29:17;64.65;;;28.45;;
66175;SDS011;52977;44.816;20.538;2022-10-31T00:32:19;64.30;;;27.83;;
66175;SDS011;52977;44.816;20.538;2022-10-31T00:35:20;57.17;;;26.83;;
66175;SDS011;52977;44.816;20.538;2022-10-31T00:38:22;59.63;;;26.83;;
66175;SDS011;52977;44.816;20.538;2022-10-31T00:41:23;51.25;;;25.13;;
66175;SDS011;52977;44.816;20.538;2022-10-31T00:47:26;58.80;;;25.27;;
66175;SDS011;52977;44.816;20.538;2022-10-31T00:50:28;64.00;;;26.05;;
66175;SDS011;52977;44.816;20.538;2022-10-31T00:53:29;62.50;;;27.63;;
66175;SDS011;52977;44.816;20.538;2022-10-31T00:56:30;62.28;;;27.42;;
66175;SDS011;52977;44.816;20.538;2022-10-31T00:59:33;70.07;;;27.92;;
66175;SDS011;52977;44.816;20.538;2022-10-31T01:02:34;57.05;;;25.42;;
66175;SDS011;52977;44.816;20.538;2022-10-31T01:05:35;61.72;;;26.38;;
66175;SDS011;52977;44.816;20.538;2022-10-31T01:08:37;78.45;;;27.95;;
66175;SDS011;52977;44.816;20.538;2022-10-31T01:11:39;74.20;;;26.75;;
66175;SDS011;52977;44.816;20.538;2022-10-31T01:14:43;68.57;;;28.15;;
66175;SDS011;52977;44.816;20.538;2022-10-31T01:17:45;70.72;;;27.98;;
66175;SDS011;52977;44.816;20.538;2022-10-31T01:20:47;60.63;;;25.92;;
66175;SDS011;52977;44.816;20.538;2022-10-31T01:23:48;70.15;;;26.92;;
66175;SDS011;52977;44.816;20.538;2022-10-31T01:26:50;63.10;;;28.05;;
66175;SDS011;52977;44.816;20.538;2022-10-31T01:29:51;71.85;;;26.65;;
66175;SDS011;52977;44.816;20.538;2022-10-31T01:35:54;60.30;;;24.92;;
66175;SDS011;52977;44.816;20.538;2022-10-31T01:38:56;63.42;;;25.55;;
66175;SDS011;52977;44.816;20.538;2022-10-31T01:42:00;69.72;;;25.65;;
66175;SDS011;52977;44.816;20.538;2022-10-31T01:45:01;75.03;;;26.25;;
66175;SDS011;52977;44.816;20.538;2022-10-31T01:48:03;60.75;;;28.45;;
66175;SDS011;52977;44.816;20.538;2022-10-31T01:54:07;68.25;;;26.60;;
66175;SDS011;52977;44.816;20.538;2022-10-31T01:57:13;63.80;;;26.75;;
66175;SDS011;52977;44.816;20.538;2022-10-31T02:00:16;59.13;;;25.95;;
66175;SDS011;52977;44.816;20.538;2022-10-31T02:03:19;63.28;;;25.95;;
66175;SDS011;52977;44.816;20.538;2022-10-31T02:06:27;57.05;;;23.35;;
66175;SDS011;52977;44.816;20.538;2022-10-31T02:09:33;62.38;;;25.98;;
66175;SDS011;52977;44.816;20.538;2022-10-31T02:12:35;66.40;;;25.58;;
66175;SDS011;52977;44.816;20.538;2022-10-31T02:15:39;63.28;;;26.38;;
66175;SDS011;52977;44.816;20.538;2022-10-31T02:18:41;62.00;;;25.10;;
66175;SDS011;52977;44.816;20.538;2022-10-31T02:21:51;58.03;;;23.83;;
66175;SDS011;52977;44.816;20.538;2022-10-31T02:25:08;58.83;;;25.42;;
66175;SDS011;52977;44.816;20.538;2022-10-31T02:38:38;50.63;;;23.38;;
66175;SDS011;52977;44.816;20.538;2022-10-31T02:48:37;49.58;;;23.05;;
66175;SDS011;52977;44.816;20.538;2022-10-31T02:51:42;51.00;;;23.77;;
66175;SDS011;52977;44.816;20.538;2022-10-31T02:54:45;53.13;;;22.00;;
66175;SDS011;52977;44.816;20.538;2022-10-31T02:57:48;59.03;;;23.77;;
66175;SDS011;52977;44.816;20.538;2022-10-31T03:01:53;51.17;;;22.77;;
66175;SDS011;52977;44.816;20.538;2022-10-31T03:11:23;51.30;;;22.80;;
66175;SDS011;52977;44.816;20.538;2022-10-31T03:14:33;46.13;;;21.35;;
66175;SDS011;52977;44.816;20.538;2022-10-31T03:18:17;53.92;;;22.60;;
66175;SDS011;52977;44.816;20.538;2022-10-31T03:21:36;53.58;;;23.00;;
66175;SDS011;52977;44.816;20.538;2022-10-31T03:27:49;50.63;;;21.98;;
66175;SDS011;52977;44.816;20.538;2022-10-31T03:30:52;48.30;;;21.90;;
66175;SDS011;52977;44.816;20.538;2022-10-31T03:33:56;52.25;;;23.63;;
66175;SDS011;52977;44.816;20.538;2022-10-31T03:37:03;50.35;;;22.77;;
66175;SDS011;52977;44.816;20.538;2022-10-31T03:40:07;62.40;;;24.33;;
66175;SDS011;52977;44.816;20.538;2022-10-31T03:43:13;54.75;;;22.60;;
66175;SDS011;52977;44.816;20.538;2022-10-31T03:46:17;57.63;;;24.50;;
66175;SDS011;52977;44.816;20.538;2022-10-31T03:55:47;52.80;;;22.80;;
66175;SDS011;52977;44.816;20.538;2022-10-31T03:58:56;56.75;;;23.73;;
66175;SDS011;52977;44.816;20.538;2022-10-31T04:02:06;49.33;;;22.80;;
66175;SDS011;52977;44.816;20.538;2022-10-31T04:05:12;58.03;;;24.88;;
66175;SDS011;52977;44.816;20.538;2022-10-31T04:08:18;56.20;;;24.27;;
66175;SDS011;52977;44.816;20.538;2022-10-31T04:11:28;69.18;;;27.42;;
66175;SDS011;52977;44.816;20.538;2022-10-31T04:15:12;62.10;;;24.90;;
66175;SDS011;52977;44.816;20.538;2022-10-31T04:18:14;57.53;;;24.33;;
66175;SDS011;52977;44.816;20.538;2022-10-31T04:24:17;74.50;;;28.30;;
66175;SDS011;52977;44.816;20.538;2022-10-31T04:27:18;61.00;;;26.17;;
66175;SDS011;52977;44.816;20.538;2022-10-31T04:30:20;69.78;;;27.42;;
66175;SDS011;52977;44.816;20.538;2022-10-31T04:33:22;65.60;;;25.35;;
66175;SDS011;52977;44.816;20.538;2022-10-31T04:36:24;72.63;;;27.50;;
66175;SDS011;52977;44.816;20.538;2022-10-31T04:39:27;62.10;;;25.80;;
66175;SDS011;52977;44.816;20.538;2022-10-31T04:42:48;65.85;;;25.90;;
66175;SDS011;52977;44.816;20.538;2022-10-31T04:45:49;76.00;;;26.98;;
66175;SDS011;52977;44.816;20.538;2022-10-31T04:48:50;69.53;;;27.73;;
66175;SDS011;52977;44.816;20.538;2022-10-31T04:51:52;63.28;;;25.15;;
66175;SDS011;52977;44.816;20.538;2022-10-31T04:54:53;70.70;;;27.02;;
66175;SDS011;52977;44.816;20.538;2022-10-31T04:58:16;65.88;;;26.20;;
66175;SDS011;52977;44.816;20.538;2022-10-31T05:01:18;69.13;;;26.90;;
66175;SDS011;52977;44.816;20.538;2022-10-31T05:04:19;63.42;;;24.75;;
66175;SDS011;52977;44.816;20.538;2022-10-31T05:07:21;65.63;;;24.65;;
66175;SDS011;52977;44.816;20.538;2022-10-31T05:10:24;82.25;;;29.65;;
66175;SDS011;52977;44.816;20.538;2022-10-31T05:13:30;71.82;;;27.98;;
66175;SDS011;52977;44.816;20.538;2022-10-31T05:16:47;70.65;;;29.02;;
66175;SDS011;52977;44.816;20.538;2022-10-31T05:20:14;70.70;;;28.25;;
66175;SDS011;52977;44.816;20.538;2022-10-31T05:23:37;75.30;;;29.00;;
66175;SDS011;52977;44.816;20.538;2022-10-31T05:26:41;76.50;;;30.25;;
66175;SDS011;52977;44.816;20.538;2022-10-31T05:29:43;76.22;;;29.02;;
66175;SDS011;52977;44.816;20.538;2022-10-31T05:32:44;75.87;;;29.53;;
66175;SDS011;52977;44.816;20.538;2022-10-31T05:36:06;66.65;;;26.88;;
66175;SDS011;52977;44.816;20.538;2022-10-31T05:39:11;64.80;;;26.10;;
66175;SDS011;52977;44.816;20.538;2022-10-31T05:42:20;72.13;;;27.17;;
66175;SDS011;52977;44.816;20.538;2022-10-31T05:45:22;69.18;;;25.13;;
66175;SDS011;52977;44.816;20.538;2022-10-31T05:48:33;73.93;;;27.13;;
66175;SDS011;52977;44.816;20.538;2022-10-31T05:51:53;78.30;;;28.10;;
66175;SDS011;52977;44.816;20.538;2022-10-31T05:55:00;60.85;;;24.52;;
66175;SDS011;52977;44.816;20.538;2022-10-31T05:58:03;66.60;;;25.77;;
66175;SDS011;52977;44.816;20.538;2022-10-31T06:01:05;67.25;;;26.10;;
66175;SDS011;52977;44.816;20.538;2022-10-31T06:04:07;66.05;;;26.75;;
66175;SDS011;52977;44.816;20.538;2022-10-31T06:07:10;71.70;;;27.05;;
66175;SDS011;52977;44.816;20.538;2022-10-31T06:10:12;68.65;;;25.80;;
66175;SDS011;52977;44.816;20.538;2022-10-31T06:13:15;72.65;;;27.15;;
66175;SDS011;52977;44.816;20.538;2022-10-31T06:16:27;64.32;;;25.92;;
66175;SDS011;52977;44.816;20.538;2022-10-31T06:19:31;64.88;;;25.90;;
66175;SDS011;52977;44.816;20.538;2022-10-31T06:22:33;71.45;;;27.17;;
66175;SDS011;52977;44.816;20.538;2022-10-31T06:25:34;69.53;;;26.40;;
66175;SDS011;52977;44.816;20.538;2022-10-31T06:28:38;56.75;;;23.73;;
66175;SDS011;52977;44.816;20.538;2022-10-31T06:31:58;58.47;;;24.00;;
66175;SDS011;52977;44.816;20.538;2022-10-31T06:38:00;53.60;;;22.70;;
66175;SDS011;52977;44.816;20.538;2022-10-31T06:41:11;59.65;;;23.75;;
66175;SDS011;52977;44.816;20.538;2022-10-31T06:44:17;65.38;;;23.95;;
66175;SDS011;52977;44.816;20.538;2022-10-31T06:47:24;55.05;;;23.05;;
66175;SDS011;52977;44.816;20.538;2022-10-31T06:50:52;51.33;;;22.08;;
66175;SDS011;52977;44.816;20.538;2022-10-31T06:53:53;57.88;;;22.98;;
66175;SDS011;52977;44.816;20.538;2022-10-31T06:56:56;54.40;;;23.33;;
66175;SDS011;52977;44.816;20.538;2022-10-31T06:59:58;54.80;;;23.35;;
66175;SDS011;52977;44.816;20.538;2022-10-31T07:03:13;57.30;;;23.70;;
66175;SDS011;52977;44.816;20.538;2022-10-31T07:06:16;53.83;;;23.42;;
66175;SDS011;52977;44.816;20.538;2022-10-31T07:09:17;61.97;;;24.83;;
66175;SDS011;52977;44.816;20.538;2022-10-31T07:12:19;62.75;;;26.17;;
66175;SDS011;52977;44.816;20.538;2022-10-31T07:15:29;70.00;;;28.75;;
66175;SDS011;52977;44.816;20.538;2022-10-31T07:18:34;66.90;;;26.70;;
66175;SDS011;52977;44.816;20.538;2022-10-31T07:21:36;60.58;;;24.98;;
66175;SDS011;52977;44.816;20.538;2022-10-31T07:24:38;54.40;;;25.80;;
66175;SDS011;52977;44.816;20.538;2022-10-31T07:27:58;52.17;;;23.05;;
66175;SDS011;52977;44.816;20.538;2022-10-31T07:34:00;73.18;;;29.73;;
66175;SDS011;52977;44.816;20.538;2022-10-31T07:46:41;86.93;;;36.63;;
66175;SDS011;52977;44.816;20.538;2022-10-31T07:49:37;81.85;;;34.50;;
66175;SDS011;52977;44.816;20.538;2022-10-31T07:52:22;87.05;;;36.25;;
66175;SDS011;52977;44.816;20.538;2022-10-31T07:55:07;82.15;;;32.55;;
66175;SDS011;52977;44.816;20.538;2022-10-31T07:57:35;85.07;;;32.22;;
66175;SDS011;52977;44.816;20.538;2022-10-31T08:00:06;85.00;;;34.40;;
66175;SDS011;52977;44.816;20.538;2022-10-31T08:02:40;87.57;;;34.70;;
66175;SDS011;52977;44.816;20.538;2022-10-31T08:05:29;88.53;;;34.60;;
66175;SDS011;52977;44.816;20.538;2022-10-31T08:08:25;85.55;;;34.47;;
66175;SDS011;52977;44.816;20.538;2022-10-31T08:10:54;91.75;;;35.72;;
66175;SDS011;52977;44.816;20.538;2022-10-31T08:13:21;90.80;;;35.55;;
66175;SDS011;52977;44.816;20.538;2022-10-31T08:15:49;100.30;;;36.92;;
66175;SDS011;52977;44.816;20.538;2022-10-31T08:18:22;95.97;;;36.20;;
66175;SDS011;52977;44.816;20.538;2022-10-31T08:20:50;94.95;;;36.80;;
66175;SDS011;52977;44.816;20.538;2022-10-31T08:23:16;90.50;;;37.10;;
66175;SDS011;52977;44.816;20.538;2022-10-31T08:25:43;98.93;;;38.13;;
66175;SDS011;52977;44.816;20.538;2022-10-31T08:28:12;97.97;;;37.55;;
66175;SDS011;52977;44.816;20.538;2022-10-31T08:30:41;95.95;;;38.63;;
66175;SDS011;52977;44.816;20.538;2022-10-31T08:33:26;105.82;;;39.92;;
66175;SDS011;52977;44.816;20.538;2022-10-31T08:36:11;106.85;;;39.70;;
66175;SDS011;52977;44.816;20.538;2022-10-31T08:39:00;107.40;;;41.25;;
66175;SDS011;52977;44.816;20.538;2022-10-31T08:41:31;105.13;;;39.83;;
66175;SDS011;52977;44.816;20.538;2022-10-31T08:43:59;111.38;;;41.08;;
66175;SDS011;52977;44.816;20.538;2022-10-31T08:46:25;107.05;;;42.95;;
66175;SDS011;52977;44.816;20.538;2022-10-31T08:48:52;107.32;;;42.60;;
66175;SDS011;52977;44.816;20.538;2022-10-31T08:51:19;112.53;;;42.30;;
66175;SDS011;52977;44.816;20.538;2022-10-31T08:53:49;113.07;;;41.75;;
66175;SDS011;52977;44.816;20.538;2022-10-31T08:56:38;107.32;;;42.03;;
66175;SDS011;52977;44.816;20.538;2022-10-31T08:59:14;116.68;;;44.20;;
66175;SDS011;52977;44.816;20.538;2022-10-31T09:01:59;119.65;;;44.40;;
66175;SDS011;52977;44.816;20.538;2022-10-31T09:04:26;107.38;;;41.70;;
66175;SDS011;52977;44.816;20.538;2022-10-31T09:06:52;122.85;;;46.97;;
66175;SDS011;52977;44.816;20.538;2022-10-31T09:09:18;118.35;;;45.88;;
66175;SDS011;52977;44.816;20.538;2022-10-31T09:11:45;106.38;;;42.70;;
66175;SDS011;52977;44.816;20.538;2022-10-31T09:14:30;113.50;;;42.40;;
66175;SDS011;52977;44.816;20.538;2022-10-31T09:17:20;119.22;;;42.42;;
66175;SDS011;52977;44.816;20.538;2022-10-31T09:20:06;114.45;;;42.03;;
66175;SDS011;52977;44.816;20.538;2022-10-31T09:22:34;118.22;;;42.25;;
66175;SDS011;52977;44.816;20.538;2022-10-31T09:25:01;117.10;;;43.70;;
66175;SDS011;52977;44.816;20.538;2022-10-31T09:27:27;109.93;;;41.58;;
66175;SDS011;52977;44.816;20.538;2022-10-31T09:29:55;114.70;;;42.85;;
66175;SDS011;52977;44.816;20.538;2022-10-31T09:32:22;116.28;;;43.33;;
66175;SDS011;52977;44.816;20.538;2022-10-31T09:34:49;121.53;;;44.05;;
66175;SDS011;52977;44.816;20.538;2022-10-31T09:37:19;125.15;;;45.20;;
66175;SDS011;52977;44.816;20.538;2022-10-31T09:39:45;118.85;;;45.53;;
66175;SDS011;52977;44.816;20.538;2022-10-31T09:42:42;118.43;;;44.88;;
66175;SDS011;52977;44.816;20.538;2022-10-31T09:54:06;102.13;;;39.03;;
66175;SDS011;52977;44.816;20.538;2022-10-31T09:56:38;106.10;;;38.63;;
66175;SDS011;52977;44.816;20.538;2022-10-31T09:59:05;105.10;;;38.25;;
66175;SDS011;52977;44.816;20.538;2022-10-31T10:07:04;97.53;;;35.40;;
66175;SDS011;52977;44.816;20.538;2022-10-31T10:10:00;97.65;;;36.42;;
66175;SDS011;52977;44.816;20.538;2022-10-31T10:18:59;93.72;;;36.17;;
66175;SDS011;52977;44.816;20.538;2022-10-31T10:21:54;102.80;;;38.05;;
66175;SDS011;52977;44.816;20.538;2022-10-31T10:27:22;96.78;;;35.53;;
66175;SDS011;52977;44.816;20.538;2022-10-31T10:30:04;110.15;;;39.47;;
66175;SDS011;52977;44.816;20.538;2022-10-31T10:32:37;108.68;;;39.85;;
66175;SDS011;52977;44.816;20.538;2022-10-31T10:36:26;96.18;;;37.08;;
66175;SDS011;52977;44.816;20.538;2022-10-31T10:38:33;108.18;;;38.85;;
66175;SDS011;52977;44.816;20.538;2022-10-31T10:41:16;100.68;;;38.45;;
66175;SDS011;52977;44.816;20.538;2022-10-31T10:43:43;103.80;;;39.05;;
66175;SDS011;52977;44.816;20.538;2022-10-31T10:46:23;110.43;;;38.95;;
66175;SDS011;52977;44.816;20.538;2022-10-31T10:51:59;98.47;;;36.47;;
66175;SDS011;52977;44.816;20.538;2022-10-31T10:59:45;97.20;;;37.70;;
66175;SDS011;52977;44.816;20.538;2022-10-31T11:02:16;99.53;;;37.88;;
66175;SDS011;52977;44.816;20.538;2022-10-31T11:04:49;100.65;;;38.22;;
66175;SDS011;52977;44.816;20.538;2022-10-31T11:07:17;99.57;;;38.17;;
66175;SDS011;52977;44.816;20.538;2022-10-31T11:09:44;97.18;;;36.65;;
66175;SDS011;52977;44.816;20.538;2022-10-31T11:12:22;106.50;;;39.55;;
66175;SDS011;52977;44.816;20.538;2022-10-31T11:15:02;105.75;;;39.20;;
66175;SDS011;52977;44.816;20.538;2022-10-31T11:17:36;102.88;;;40.72;;
66175;SDS011;52977;44.816;20.538;2022-10-31T11:22:44;118.13;;;45.70;;
66175;SDS011;52977;44.816;20.538;2022-10-31T11:25:22;109.22;;;43.00;;
66175;SDS011;52977;44.816;20.538;2022-10-31T11:27:58;101.95;;;40.75;;
66175;SDS011;52977;44.816;20.538;2022-10-31T11:30:29;100.32;;;41.03;;
66175;SDS011;52977;44.816;20.538;2022-10-31T11:33:01;102.07;;;42.05;;
66175;SDS011;52977;44.816;20.538;2022-10-31T11:35:27;103.47;;;40.17;;
66175;SDS011;52977;44.816;20.538;2022-10-31T11:38:04;103.40;;;42.20;;
66175;SDS011;52977;44.816;20.538;2022-10-31T11:40:31;104.63;;;43.20;;
66175;SDS011;52977;44.816;20.538;2022-10-31T11:43:00;101.75;;;40.67;;
66175;SDS011;52977;44.816;20.538;2022-10-31T11:45:31;99.78;;;41.00;;
66175;SDS011;52977;44.816;20.538;2022-10-31T11:48:02;95.07;;;37.47;;
66175;SDS011;52977;44.816;20.538;2022-10-31T11:50:55;98.18;;;39.95;;
66175;SDS011;52977;44.816;20.538;2022-10-31T11:53:29;98.22;;;38.85;;
66175;SDS011;52977;44.816;20.538;2022-10-31T11:56:20;98.35;;;39.40;;
66175;SDS011;52977;44.816;20.538;2022-10-31T11:58:55;102.18;;;38.88;;
66175;SDS011;52977;44.816;20.538;2022-10-31T12:01:25;99.72;;;39.65;;
66175;SDS011;52977;44.816;20.538;2022-10-31T12:04:11;94.75;;;38.40;;
66175;SDS011;52977;44.816;20.538;2022-10-31T12:06:45;94.65;;;38.67;;
66175;SDS011;52977;44.816;20.538;2022-10-31T12:09:23;92.35;;;37.33;;
66175;SDS011;52977;44.816;20.538;2022-10-31T12:14:33;95.70;;;39.88;;
66175;SDS011;52977;44.816;20.538;2022-10-31T13:01:03;102.25;;;41.63;;
66175;SDS011;52977;44.816;20.538;2022-10-31T13:06:47;96.88;;;40.20;;
66175;SDS011;52977;44.816;20.538;2022-10-31T13:09:18;95.30;;;41.35;;
66175;SDS011;52977;44.816;20.538;2022-10-31T13:16:59;97.85;;;39.05;;
66175;SDS011;52977;44.816;20.538;2022-10-31T13:19:42;93.00;;;37.85;;
66175;SDS011;52977;44.816;20.538;2022-10-31T13:22:17;95.20;;;38.80;;
66175;SDS011;52977;44.816;20.538;2022-10-31T13:27:28;102.82;;;40.78;;
66175;SDS011;52977;44.816;20.538;2022-10-31T13:30:01;96.97;;;40.67;;
66175;SDS011;52977;44.816;20.538;2022-10-31T13:32:41;97.05;;;41.55;;
66175;SDS011;52977;44.816;20.538;2022-10-31T13:35:24;91.35;;;39.67;;
66175;SDS011;52977;44.816;20.538;2022-10-31T13:38:19;108.30;;;41.63;;
66175;SDS011;52977;44.816;20.538;2022-10-31T13:45:56;99.85;;;41.00;;
66175;SDS011;52977;44.816;20.538;2022-10-31T13:48:36;103.85;;;41.72;;
66175;SDS011;52977;44.816;20.538;2022-10-31T13:51:06;96.63;;;41.22;;
66175;SDS011;52977;44.816;20.538;2022-10-31T13:53:38;95.30;;;41.85;;
66175;SDS011;52977;44.816;20.538;2022-10-31T13:56:22;98.15;;;39.97;;
66175;SDS011;52977;44.816;20.538;2022-10-31T14:01:29;99.57;;;44.05;;
66175;SDS011;52977;44.816;20.538;2022-10-31T14:04:02;101.68;;;42.53;;
66175;SDS011;52977;44.816;20.538;2022-10-31T14:06:40;101.93;;;42.00;;
66175;SDS011;52977;44.816;20.538;2022-10-31T14:09:18;101.47;;;43.08;;
66175;SDS011;52977;44.816;20.538;2022-10-31T14:11:48;97.72;;;42.22;;
66175;SDS011;52977;44.816;20.538;2022-10-31T14:14:16;108.10;;;43.70;;
66175;SDS011;52977;44.816;20.538;2022-10-31T14:16:45;101.43;;;42.30;;
66175;SDS011;52977;44.816;20.538;2022-10-31T14:19:18;109.82;;;44.88;;
66175;SDS011;52977;44.816;20.538;2022-10-31T14:21:47;104.57;;;45.22;;
66175;SDS011;52977;44.816;20.538;2022-10-31T14:26:54;106.38;;;44.17;;
66175;SDS011;52977;44.816;20.538;2022-10-31T14:32:18;96.53;;;40.00;;
66175;SDS011;52977;44.816;20.538;2022-10-31T14:34:57;94.82;;;40.05;;
66175;SDS011;52977;44.816;20.538;2022-10-31T14:40:34;90.78;;;40.25;;
66175;SDS011;52977;44.816;20.538;2022-10-31T14:46:16;91.88;;;37.83;;
66175;SDS011;52977;44.816;20.538;2022-10-31T14:51:58;92.88;;;39.38;;
66175;SDS011;52977;44.816;20.538;2022-10-31T14:54:32;93.72;;;40.08;;
66175;SDS011;52977;44.816;20.538;2022-10-31T14:57:16;99.53;;;43.83;;
66175;SDS011;52977;44.816;20.538;2022-10-31T14:59:49;92.53;;;39.88;;
66175;SDS011;52977;44.816;20.538;2022-10-31T15:02:21;104.07;;;44.50;;
66175;SDS011;52977;44.816;20.538;2022-10-31T15:07:22;99.70;;;39.53;;
66175;SDS011;52977;44.816;20.538;2022-10-31T15:09:55;104.93;;;43.35;;
66175;SDS011;52977;44.816;20.538;2022-10-31T15:12:27;101.47;;;41.80;;
66175;SDS011;52977;44.816;20.538;2022-10-31T15:14:55;96.50;;;39.47;;
66175;SDS011;52977;44.816;20.538;2022-10-31T15:17:22;93.55;;;40.72;;
66175;SDS011;52977;44.816;20.538;2022-10-31T15:19:50;106.93;;;43.15;;
66175;SDS011;52977;44.816;20.538;2022-10-31T15:22:18;95.75;;;41.42;;
66175;SDS011;52977;44.816;20.538;2022-10-31T15:24:48;97.75;;;40.72;;
66175;SDS011;52977;44.816;20.538;2022-10-31T15:27:21;99.18;;;40.97;;
66175;SDS011;52977;44.816;20.538;2022-10-31T15:29:53;97.32;;;40.25;;
66175;SDS011;52977;44.816;20.538;2022-10-31T15:32:25;89.72;;;39.10;;
66175;SDS011;52977;44.816;20.538;2022-10-31T15:34:53;97.00;;;42.25;;
66175;SDS011;52977;44.816;20.538;2022-10-31T15:37:22;95.68;;;41.53;;
66175;SDS011;52977;44.816;20.538;2022-10-31T15:39:50;93.13;;;39.05;;
66175;SDS011;52977;44.816;20.538;2022-10-31T15:44:50;93.95;;;40.33;;
66175;SDS011;52977;44.816;20.538;2022-10-31T15:47:25;97.18;;;40.22;;
66175;SDS011;52977;44.816;20.538;2022-10-31T15:49:55;98.38;;;39.22;;
66175;SDS011;52977;44.816;20.538;2022-10-31T15:55:00;96.82;;;39.92;;
66175;SDS011;52977;44.816;20.538;2022-10-31T15:57:28;91.13;;;39.40;;
66175;SDS011;52977;44.816;20.538;2022-10-31T15:59:56;98.95;;;41.95;;
66175;SDS011;52977;44.816;20.538;2022-10-31T16:02:23;99.35;;;40.65;;
66175;SDS011;52977;44.816;20.538;2022-10-31T16:04:58;96.15;;;39.55;;
66175;SDS011;52977;44.816;20.538;2022-10-31T16:07:27;94.75;;;39.70;;
66175;SDS011;52977;44.816;20.538;2022-10-31T16:09:55;93.93;;;42.30;;
66175;SDS011;52977;44.816;20.538;2022-10-31T16:12:31;93.97;;;39.13;;
66175;SDS011;52977;44.816;20.538;2022-10-31T16:15:01;95.55;;;39.45;;
66175;SDS011;52977;44.816;20.538;2022-10-31T16:17:29;97.00;;;40.08;;
66175;SDS011;52977;44.816;20.538;2022-10-31T16:19:58;99.55;;;39.95;;
66175;SDS011;52977;44.816;20.538;2022-10-31T16:22:28;93.82;;;39.28;;
66175;SDS011;52977;44.816;20.538;2022-10-31T16:25:01;91.93;;;40.22;;
66175;SDS011;52977;44.816;20.538;2022-10-31T16:27:50;92.10;;;39.05;;
66175;SDS011;52977;44.816;20.538;2022-10-31T16:30:29;87.25;;;38.78;;
66175;SDS011;52977;44.816;20.538;2022-10-31T16:32:56;91.72;;;37.92;;
66175;SDS011;52977;44.816;20.538;2022-10-31T16:37:52;88.80;;;37.10;;
66175;SDS011;52977;44.816;20.538;2022-10-31T16:40:19;88.05;;;36.97;;
66175;SDS011;52977;44.816;20.538;2022-10-31T16:42:46;88.70;;;36.20;;
66175;SDS011;52977;44.816;20.538;2022-10-31T16:45:16;81.05;;;34.47;;
66175;SDS011;52977;44.816;20.538;2022-10-31T16:47:44;82.85;;;32.20;;
66175;SDS011;52977;44.816;20.538;2022-10-31T16:50:12;78.13;;;30.33;;
66175;SDS011;52977;44.816;20.538;2022-10-31T16:52:45;72.20;;;29.05;;
66175;SDS011;52977;44.816;20.538;2022-10-31T16:55:13;77.93;;;31.38;;
66175;SDS011;52977;44.816;20.538;2022-10-31T16:57:41;70.20;;;29.25;;
66175;SDS011;52977;44.816;20.538;2022-10-31T17:00:12;70.03;;;28.55;;
66175;SDS011;52977;44.816;20.538;2022-10-31T17:02:44;74.93;;;28.27;;
66175;SDS011;52977;44.816;20.538;2022-10-31T17:05:13;64.28;;;29.10;;
66175;SDS011;52977;44.816;20.538;2022-10-31T17:07:44;64.97;;;27.45;;
66175;SDS011;52977;44.816;20.538;2022-10-31T17:10:11;71.82;;;27.55;;
66175;SDS011;52977;44.816;20.538;2022-10-31T17:12:40;68.22;;;27.00;;
66175;SDS011;52977;44.816;20.538;2022-10-31T17:15:14;65.97;;;27.33;;
66175;SDS011;52977;44.816;20.538;2022-10-31T17:17:41;68.22;;;26.65;;
66175;SDS011;52977;44.816;20.538;2022-10-31T17:20:11;68.22;;;26.90;;
66175;SDS011;52977;44.816;20.538;2022-10-31T17:22:45;60.65;;;24.65;;
66175;SDS011;52977;44.816;20.538;2022-10-31T17:25:12;64.50;;;27.02;;
66175;SDS011;52977;44.816;20.538;2022-10-31T17:27:40;64.38;;;25.80;;
66175;SDS011;52977;44.816;20.538;2022-10-31T17:30:07;62.75;;;25.70;;
66175;SDS011;52977;44.816;20.538;2022-10-31T17:32:33;70.05;;;28.85;;
66175;SDS011;52977;44.816;20.538;2022-10-31T17:34:59;75.50;;;31.27;;
66175;SDS011;52977;44.816;20.538;2022-10-31T17:37:25;82.03;;;32.17;;
66175;SDS011;52977;44.816;20.538;2022-10-31T17:39:52;79.50;;;30.50;;
66175;SDS011;52977;44.816;20.538;2022-10-31T17:42:18;76.22;;;31.52;;
66175;SDS011;52977;44.816;20.538;2022-10-31T17:44:44;79.68;;;32.22;;
66175;SDS011;52977;44.816;20.538;2022-10-31T17:47:12;80.07;;;33.58;;
66175;SDS011;52977;44.816;20.538;2022-10-31T17:49:38;82.93;;;33.67;;
66175;SDS011;52977;44.816;20.538;2022-10-31T17:52:04;84.13;;;33.65;;
66175;SDS011;52977;44.816;20.538;2022-10-31T17:54:31;78.47;;;33.17;;
66175;SDS011;52977;44.816;20.538;2022-10-31T17:56:57;78.57;;;32.20;;
66175;SDS011;52977;44.816;20.538;2022-10-31T17:59:23;80.90;;;32.45;;
66175;SDS011;52977;44.816;20.538;2022-10-31T18:01:49;72.40;;;30.05;;
66175;SDS011;52977;44.816;20.538;2022-10-31T18:04:16;78.90;;;32.45;;
66175;SDS011;52977;44.816;20.538;2022-10-31T18:06:42;78.20;;;33.47;;
66175;SDS011;52977;44.816;20.538;2022-10-31T18:09:08;78.93;;;33.17;;
66175;SDS011;52977;44.816;20.538;2022-10-31T18:11:34;80.82;;;33.55;;
66175;SDS011;52977;44.816;20.538;2022-10-31T18:14:01;83.10;;;34.10;;
66175;SDS011;52977;44.816;20.538;2022-10-31T18:16:27;78.85;;;32.72;;
66175;SDS011;52977;44.816;20.538;2022-10-31T18:18:54;79.63;;;33.13;;
66175;SDS011;52977;44.816;20.538;2022-10-31T18:21:29;79.88;;;33.28;;
66175;SDS011;52977;44.816;20.538;2022-10-31T18:23:55;82.20;;;35.08;;
66175;SDS011;52977;44.816;20.538;2022-10-31T18:26:25;86.30;;;34.60;;
66175;SDS011;52977;44.816;20.538;2022-10-31T18:28:52;85.22;;;33.88;;
66175;SDS011;52977;44.816;20.538;2022-10-31T18:31:19;82.32;;;33.88;;
66175;SDS011;52977;44.816;20.538;2022-10-31T18:33:46;84.10;;;32.95;;
66175;SDS011;52977;44.816;20.538;2022-10-31T18:36:12;81.55;;;34.67;;
66175;SDS011;52977;44.816;20.538;2022-10-31T18:38:39;85.80;;;35.92;;
66175;SDS011;52977;44.816;20.538;2022-10-31T18:41:07;84.88;;;33.83;;
66175;SDS011;52977;44.816;20.538;2022-10-31T18:43:33;81.18;;;31.52;;
66175;SDS011;52977;44.816;20.538;2022-10-31T18:46:01;80.90;;;36.38;;
66175;SDS011;52977;44.816;20.538;2022-10-31T18:48:27;85.97;;;34.42;;
66175;SDS011;52977;44.816;20.538;2022-10-31T18:50:56;82.22;;;33.58;;
66175;SDS011;52977;44.816;20.538;2022-10-31T18:53:26;85.88;;;34.67;;
66175;SDS011;52977;44.816;20.538;2022-10-31T18:55:52;84.95;;;35.22;;
66175;SDS011;52977;44.816;20.538;2022-10-31T18:58:19;91.28;;;35.90;;
66175;SDS011;52977;44.816;20.538;2022-10-31T19:00:45;83.18;;;33.50;;